createdAt,value
2019-04-27T00:02:24.788Z,4.90
2019-04-27T00:05:04.366Z,5.30
2019-04-27T00:07:39.402Z,5.40
2019-04-27T00:10:27.013Z,5.20
2019-04-27T00:13:02.229Z,5.50
2019-04-27T00:15:36.638Z,5.30
2019-04-27T00:18:27.987Z,5.37
2019-04-27T00:21:03.620Z,5.37
2019-04-27T00:23:37.235Z,5.57
2019-04-27T00:26:10.688Z,5.00
2019-04-27T00:28:44.062Z,5.17
2019-04-27T00:31:17.615Z,4.97
2019-04-27T00:33:51.034Z,5.00
2019-04-27T00:36:38.377Z,5.03
2019-04-27T00:39:29.745Z,5.60
2019-04-27T00:42:03.361Z,5.27
2019-04-27T00:44:36.836Z,5.23
2019-04-27T00:47:10.373Z,5.60
2019-04-27T00:49:44.347Z,5.50
2019-04-27T00:52:18.081Z,5.53
2019-04-27T00:54:51.686Z,5.20
2019-04-27T00:57:33.209Z,5.17
2019-04-27T01:00:25.131Z,5.40
2019-04-27T01:03:00.309Z,5.47
2019-04-27T01:05:33.929Z,5.60
2019-04-27T01:08:07.388Z,5.50
2019-04-27T01:10:41.015Z,5.33
2019-04-27T01:13:14.497Z,5.63
2019-04-27T01:15:49.256Z,5.97
2019-04-27T01:18:22.700Z,5.70
2019-04-27T01:20:56.235Z,5.40
2019-04-27T01:23:29.698Z,6.00
2019-04-27T01:26:10.689Z,5.97
2019-04-27T01:28:54.547Z,5.93
2019-04-27T01:31:29.401Z,5.60
2019-04-27T01:34:02.845Z,5.67
2019-04-27T01:36:36.281Z,6.50
2019-04-27T01:39:11.485Z,6.00
2019-04-27T01:41:45.007Z,6.17
2019-04-27T01:44:19.419Z,5.87
2019-04-27T01:46:52.896Z,6.03
2019-04-27T01:49:26.526Z,6.13
2019-04-27T01:51:59.953Z,5.97
2019-04-27T01:54:33.396Z,6.00
2019-04-27T01:57:07.062Z,5.97
2019-04-27T01:59:40.900Z,6.87
2019-04-27T02:02:16.042Z,6.20
2019-04-27T02:04:51.144Z,5.70
2019-04-27T02:07:24.673Z,6.03
2019-04-27T02:09:58.884Z,5.67
2019-04-27T02:12:32.419Z,6.20
2019-04-27T02:15:08.846Z,5.90
2019-04-27T02:17:42.633Z,6.00
2019-04-27T02:20:16.144Z,5.90
2019-04-27T02:22:50.739Z,6.43
2019-04-27T02:25:24.265Z,6.77
2019-04-27T02:27:59.389Z,6.40
2019-04-27T02:30:43.380Z,6.97
2019-04-27T02:33:33.675Z,6.87
2019-04-27T02:36:07.046Z,6.80
2019-04-27T02:38:40.705Z,6.70
2019-04-27T02:41:14.216Z,7.10
2019-04-27T02:43:59.536Z,7.30
2019-04-27T02:46:33.345Z,7.80
2019-04-27T02:49:07.487Z,7.70
2019-04-27T02:51:49.721Z,7.50
2019-04-27T02:54:23.135Z,7.73
2019-04-27T02:56:59.212Z,7.83
2019-04-27T02:59:31.784Z,7.40
2019-04-27T03:02:23.049Z,7.63
2019-04-27T03:04:56.532Z,7.30
2019-04-27T03:07:30.415Z,7.10
2019-04-27T03:10:05.822Z,7.13
2019-04-27T03:12:42.448Z,7.23
2019-04-27T03:15:17.586Z,7.67
2019-04-27T03:17:55.619Z,7.17
2019-04-27T03:20:33.107Z,7.57
2019-04-27T03:23:09.669Z,7.17
2019-04-27T03:25:50.748Z,7.40
2019-04-27T03:28:24.164Z,7.50
2019-04-27T03:31:01.997Z,7.40
2019-04-27T03:33:33.095Z,7.27
2019-04-27T03:36:06.628Z,7.93
2019-04-27T03:38:40.063Z,7.17
2019-04-27T03:41:13.550Z,7.97
2019-04-27T03:43:47.003Z,8.20
2019-04-27T03:46:20.686Z,7.60
2019-04-27T03:48:54.173Z,7.23
2019-04-27T03:51:29.946Z,7.47
2019-04-27T03:54:10.385Z,7.20
2019-04-27T03:56:44.878Z,6.63
2019-04-27T03:59:19.966Z,6.37
2019-04-27T04:01:53.386Z,6.30
2019-04-27T04:04:26.907Z,5.87
2019-04-27T04:07:09.673Z,6.20
2019-04-27T04:09:43.433Z,5.53
2019-04-27T04:12:34.697Z,5.83
2019-04-27T04:15:10.225Z,5.73
2019-04-27T04:17:43.550Z,5.77
2019-04-27T04:20:16.914Z,5.47
2019-04-27T04:22:51.469Z,5.17
2019-04-27T04:25:24.954Z,4.97
2019-04-27T04:28:00.571Z,5.17
2019-04-27T04:30:33.558Z,5.30
2019-04-27T04:33:06.988Z,5.37
2019-04-27T04:35:40.370Z,5.30
2019-04-27T04:38:13.862Z,5.90
2019-04-27T04:40:51.379Z,5.30
2019-04-27T04:43:29.558Z,4.80
2019-04-27T04:46:22.936Z,5.07
2019-04-27T04:48:55.927Z,4.63
2019-04-27T04:51:30.311Z,4.30
2019-04-27T04:54:04.090Z,4.20
2019-04-27T04:56:39.244Z,4.40
2019-04-27T04:59:12.955Z,4.10
2019-04-27T05:01:46.443Z,4.07
2019-04-27T05:04:19.785Z,4.17
2019-04-27T05:06:53.250Z,3.87
2019-04-27T05:09:26.622Z,4.00
2019-04-27T05:12:00.079Z,4.10
2019-04-27T05:14:33.456Z,4.40
2019-04-27T05:17:06.999Z,4.60
2019-04-27T05:19:40.441Z,4.27
2019-04-27T05:22:14.152Z,4.07
2019-04-27T05:24:49.400Z,4.27
2019-04-27T05:27:43.085Z,4.30
2019-04-27T05:30:21.038Z,4.07
2019-04-27T05:32:54.168Z,4.27
2019-04-27T05:35:29.666Z,4.10
2019-04-27T05:38:07.257Z,4.00
2019-04-27T05:40:39.863Z,3.80
2019-04-27T05:43:15.422Z,4.10
2019-04-27T05:46:37.128Z,4.20
2019-04-27T05:49:20.813Z,4.17
2019-04-27T05:52:08.518Z,4.10
2019-04-27T05:54:46.663Z,3.83
2019-04-27T05:57:31.195Z,3.80
2019-04-27T06:00:02.728Z,4.00
2019-04-27T06:02:39.887Z,4.23
2019-04-27T06:05:21.184Z,4.03
2019-04-27T06:07:55.191Z,3.80
2019-04-27T06:10:29.823Z,3.87
2019-04-27T06:13:04.545Z,3.20
2019-04-27T06:15:38.944Z,3.33
2019-04-27T06:18:12.496Z,3.30
2019-04-27T06:20:55.690Z,3.20
2019-04-27T06:23:30.640Z,3.03
2019-04-27T06:26:04.498Z,3.50
2019-04-27T06:28:39.771Z,3.23
2019-04-27T06:31:24.254Z,2.87
2019-04-27T06:33:59.537Z,3.20
2019-04-27T06:36:33.077Z,2.93
2019-04-27T06:39:09.767Z,3.10
2019-04-27T06:41:43.701Z,3.03
2019-04-27T06:44:19.658Z,2.90
2019-04-27T06:46:53.293Z,2.97
2019-04-27T06:49:26.837Z,3.00
2019-04-27T06:52:05.912Z,2.93
2019-04-27T06:54:46.050Z,3.10
2019-04-27T06:57:20.776Z,3.10
2019-04-27T06:59:56.242Z,2.53
2019-04-27T07:02:29.766Z,3.23
2019-04-27T07:05:03.634Z,3.40
2019-04-27T07:07:37.070Z,2.90
2019-04-27T07:10:11.712Z,3.17
2019-04-27T07:12:45.176Z,2.90
2019-04-27T07:15:20.427Z,2.80
2019-04-27T07:17:53.969Z,2.60
2019-04-27T07:20:28.688Z,2.63
2019-04-27T07:23:04.591Z,2.90
2019-04-27T07:25:38.908Z,2.50
2019-04-27T07:28:12.474Z,2.50
2019-04-27T07:30:46.437Z,2.73
2019-04-27T07:33:20.300Z,3.27
2019-04-27T07:35:53.781Z,4.90
2019-04-27T07:38:27.189Z,2.80
2019-04-27T07:41:00.554Z,3.27
2019-04-27T07:43:35.681Z,3.33
2019-04-27T07:46:09.032Z,2.47
2019-04-27T07:48:42.374Z,2.13
2019-04-27T07:51:29.587Z,2.10
2019-04-27T07:53:51.319Z,4.10
2019-04-27T07:56:24.801Z,2.70
2019-04-27T07:58:59.513Z,2.57
2019-04-27T08:01:33.163Z,11.23
2019-04-27T08:04:06.657Z,2.70
2019-04-27T08:06:40.101Z,2.30
2019-04-27T08:09:13.606Z,2.00
2019-04-27T08:11:48.724Z,2.77
2019-04-27T08:14:22.359Z,2.40
2019-04-27T08:16:55.804Z,2.53
2019-04-27T08:19:29.526Z,2.90
2019-04-27T08:22:03.376Z,2.70
2019-04-27T08:24:36.855Z,2.87
2019-04-27T08:27:12.043Z,2.80
2019-04-27T08:29:55.956Z,3.37
2019-04-27T08:32:49.719Z,2.90
2019-04-27T08:35:23.372Z,3.30
2019-04-27T08:37:56.801Z,3.20
2019-04-27T08:40:30.315Z,2.50
2019-04-27T08:43:03.961Z,3.03
2019-04-27T08:45:39.054Z,3.30
2019-04-27T08:48:12.830Z,3.57
2019-04-27T08:50:46.394Z,3.40
2019-04-27T08:53:19.855Z,2.90
2019-04-27T08:55:53.266Z,2.97
2019-04-27T08:58:28.495Z,3.00
2019-04-27T09:01:01.973Z,2.90
2019-04-27T09:03:35.457Z,2.70
2019-04-27T09:06:10.464Z,2.67
2019-04-27T09:08:49.600Z,3.10
2019-04-27T09:11:30.767Z,2.77
2019-04-27T09:14:05.924Z,3.07
2019-04-27T09:16:41.033Z,3.13
2019-04-27T09:19:29.181Z,2.93
2019-04-27T09:22:13.610Z,2.70
2019-04-27T09:24:39.742Z,2.87
2019-04-27T09:27:13.347Z,2.40
2019-04-27T09:29:50.028Z,2.70
2019-04-27T09:32:23.219Z,2.90
2019-04-27T09:34:57.013Z,2.63
2019-04-27T09:37:30.468Z,2.80
2019-04-27T09:40:06.330Z,2.63
2019-04-27T09:42:40.660Z,2.90
2019-04-27T09:45:15.933Z,2.53
2019-04-27T09:47:49.423Z,3.07
2019-04-27T09:50:22.930Z,2.77
2019-04-27T09:52:56.393Z,2.47
2019-04-27T09:55:29.860Z,2.87
2019-04-27T09:58:03.254Z,2.57
2019-04-27T10:00:37.536Z,2.50
2019-04-27T10:03:22.972Z,2.67
2019-04-27T10:05:57.046Z,2.23
2019-04-27T10:08:30.495Z,2.20
2019-04-27T10:11:05.822Z,3.27
2019-04-27T10:13:39.413Z,2.33
2019-04-27T10:16:13.045Z,1.97
2019-04-27T10:18:46.473Z,2.10
2019-04-27T10:21:19.895Z,2.33
2019-04-27T10:23:53.373Z,2.73
2019-04-27T10:26:26.790Z,2.70
2019-04-27T10:29:00.236Z,2.40
2019-04-27T10:31:34.060Z,2.03
2019-04-27T10:34:07.539Z,2.30
2019-04-27T10:36:40.896Z,2.80
2019-04-27T10:39:14.332Z,2.70
2019-04-27T10:41:47.683Z,2.47
2019-04-27T10:44:21.133Z,2.37
2019-04-27T10:46:54.636Z,2.77
2019-04-27T10:49:28.084Z,2.57
2019-04-27T10:52:01.505Z,2.90
2019-04-27T10:54:35.115Z,2.20
2019-04-27T10:57:08.582Z,2.80
2019-04-27T10:59:42.033Z,2.70
2019-04-27T11:02:15.564Z,2.50
2019-04-27T11:04:50.706Z,2.60
2019-04-27T11:07:26.023Z,2.37
2019-04-27T11:09:59.493Z,2.20
2019-04-27T11:12:33.031Z,2.73
2019-04-27T11:15:08.847Z,3.20
2019-04-27T11:17:42.269Z,2.30
2019-04-27T11:20:15.984Z,2.17
2019-04-27T11:22:49.353Z,1.97
2019-04-27T11:25:22.808Z,1.50
2019-04-27T11:27:57.814Z,1.47
2019-04-27T11:30:31.523Z,1.50
2019-04-27T11:33:06.246Z,1.90
2019-04-27T11:35:44.466Z,2.00
2019-04-27T11:38:17.895Z,1.90
2019-04-27T11:40:51.358Z,2.20
2019-04-27T11:43:26.124Z,2.03
2019-04-27T11:45:59.696Z,2.30
2019-04-27T11:48:33.050Z,1.93
2019-04-27T11:51:06.999Z,2.10
2019-04-27T11:53:40.371Z,1.53
2019-04-27T11:56:13.924Z,1.70
2019-04-27T11:58:48.813Z,1.50
2019-04-27T12:01:22.466Z,1.70
2019-04-27T12:03:55.900Z,1.40
2019-04-27T12:06:29.370Z,1.30
2019-04-27T12:09:02.971Z,1.30
2019-04-27T12:11:36.419Z,1.47
2019-04-27T12:14:10.156Z,1.30
2019-04-27T12:16:43.536Z,2.30
2019-04-27T12:19:16.872Z,0.97
2019-04-27T12:21:50.248Z,1.00
2019-04-27T12:24:23.611Z,0.80
2019-04-27T12:27:07.630Z,1.00
2019-04-27T12:29:58.833Z,0.83
2019-04-27T12:32:32.452Z,1.20
2019-04-27T12:35:06.878Z,0.77
2019-04-27T12:37:40.424Z,0.93
2019-04-27T12:40:13.923Z,0.83
2019-04-27T12:42:47.438Z,0.73
2019-04-27T12:45:20.962Z,1.00
2019-04-27T12:47:56.410Z,0.90
2019-04-27T12:50:29.763Z,0.83
2019-04-27T12:53:04.940Z,0.70
2019-04-27T12:55:56.539Z,0.80
2019-04-27T12:58:31.596Z,0.73
2019-04-27T13:01:07.492Z,0.90
2019-04-27T13:03:41.119Z,0.77
2019-04-27T13:06:14.608Z,0.80
2019-04-27T13:08:48.212Z,0.80
2019-04-27T13:11:22.937Z,0.90
2019-04-27T13:13:57.629Z,1.30
2019-04-27T13:16:33.518Z,1.10
2019-04-27T13:19:07.179Z,1.10
2019-04-27T13:21:40.921Z,1.00
2019-04-27T13:24:14.634Z,0.80
2019-04-27T13:26:48.240Z,1.00
2019-04-27T13:29:21.680Z,0.97
2019-04-27T13:31:55.993Z,1.07
2019-04-27T13:34:30.638Z,1.00
2019-04-27T13:37:05.825Z,0.80
2019-04-27T13:39:39.310Z,1.33
2019-04-27T13:42:12.835Z,1.00
2019-04-27T13:44:46.561Z,1.40
2019-04-27T13:47:21.734Z,1.80
2019-04-27T13:49:56.784Z,1.70
2019-04-27T13:52:30.524Z,1.67
2019-04-27T13:55:05.796Z,1.30
2019-04-27T13:57:49.695Z,1.77
2019-04-27T14:00:15.440Z,1.33
2019-04-27T14:02:48.984Z,1.63
2019-04-27T14:05:22.617Z,1.53
2019-04-27T14:07:56.739Z,1.83
2019-04-27T14:10:30.201Z,1.57
2019-04-27T14:13:03.697Z,2.13
2019-04-27T14:15:38.880Z,0.90
2019-04-27T14:18:12.642Z,1.20
2019-04-27T14:20:46.321Z,1.10
2019-04-27T14:23:24.428Z,1.30
2019-04-27T14:25:58.592Z,1.10
2019-04-27T14:28:33.303Z,1.10
2019-04-27T14:31:08.850Z,1.10
2019-04-27T14:33:42.278Z,0.97
2019-04-27T14:36:15.881Z,2.10
2019-04-27T14:38:59.783Z,1.17
2019-04-27T14:41:33.561Z,1.10
2019-04-27T14:44:08.810Z,1.50
2019-04-27T14:46:42.487Z,1.10
2019-04-27T14:49:16.065Z,1.60
2019-04-27T14:51:49.682Z,1.50
2019-04-27T14:54:23.204Z,1.53
2019-04-27T14:56:58.855Z,1.80
2019-04-27T14:59:32.264Z,1.80
2019-04-27T15:02:06.349Z,1.70
2019-04-27T15:04:42.350Z,1.83
2019-04-27T15:07:15.629Z,1.50
2019-04-27T15:09:49.553Z,1.50
2019-04-27T15:12:30.594Z,1.57
2019-04-27T15:15:01.492Z,1.60
2019-04-27T15:17:36.133Z,1.10
2019-04-27T15:20:27.245Z,1.73
2019-04-27T15:23:00.142Z,1.10
2019-04-27T15:25:42.483Z,1.80
2019-04-27T15:28:20.087Z,1.20
2019-04-27T15:30:59.531Z,1.13
2019-04-27T15:33:38.864Z,1.20
2019-04-27T15:36:26.154Z,1.10
2019-04-27T15:39:22.570Z,1.30
2019-04-27T15:42:07.502Z,1.03
2019-04-27T15:44:41.050Z,1.40
2019-04-27T15:47:12.573Z,1.40
2019-04-27T15:49:52.914Z,1.30
2019-04-27T15:52:25.625Z,1.37
2019-04-27T15:54:58.175Z,1.50
2019-04-27T15:57:31.932Z,1.70
2019-04-27T16:00:17.186Z,1.57
2019-04-27T16:02:49.362Z,1.50
2019-04-27T16:05:23.592Z,1.50
2019-04-27T16:08:00.978Z,1.13
2019-04-27T16:10:32.758Z,1.13
2019-04-27T16:13:09.384Z,0.70
2019-04-27T16:15:41.834Z,1.10
2019-04-27T16:18:16.573Z,0.90
2019-04-27T16:20:50.053Z,0.83
2019-04-27T16:23:23.636Z,1.00
2019-04-27T16:29:18.648Z,0.90
2019-04-27T16:31:52.393Z,1.07
2019-04-27T16:34:25.983Z,1.20
2019-04-27T16:36:59.716Z,1.10
2019-04-27T16:39:34.347Z,1.27
2019-04-27T16:42:14.141Z,1.13
2019-04-27T16:44:44.362Z,1.40
2019-04-27T16:47:24.142Z,1.17
2019-04-27T16:49:53.807Z,1.27
2019-04-27T16:52:29.689Z,1.20
2019-04-27T16:55:02.763Z,0.97
2019-04-27T16:57:39.635Z,1.20
2019-04-27T17:00:13.339Z,1.13
2019-04-27T17:02:48.758Z,1.30
2019-04-27T17:05:24.375Z,1.23
2019-04-27T17:07:57.545Z,2.60
2019-04-27T17:10:31.212Z,2.80
2019-04-27T17:13:06.185Z,1.70
2019-04-27T17:15:58.907Z,1.23
2019-04-27T17:18:38.586Z,1.60
2019-04-27T17:21:18.557Z,1.40
2019-04-27T17:23:48.165Z,1.20
2019-04-27T17:26:24.138Z,1.30
2019-04-27T17:29:16.484Z,1.20
2019-04-27T17:31:55.156Z,2.00
2019-04-27T17:34:28.577Z,1.13
2019-04-27T17:37:01.870Z,1.87
2019-04-27T17:39:38.565Z,2.33
2019-04-27T17:42:15.139Z,1.90
2019-04-27T17:44:49.062Z,1.90
2019-04-27T17:47:26.425Z,1.37
2019-04-27T17:49:58.392Z,1.13
2019-04-27T17:52:32.121Z,1.60
2019-04-27T17:55:07.935Z,1.53
2019-04-27T17:57:42.288Z,1.63
2019-04-27T18:00:16.080Z,2.73
2019-04-27T18:02:49.699Z,5.63
2019-04-27T18:05:23.352Z,6.53
2019-04-27T18:07:57.989Z,3.73
2019-04-27T18:10:31.514Z,3.23
2019-04-27T18:13:05.157Z,3.20
2019-04-27T18:15:38.934Z,3.60
2019-04-27T18:18:18.695Z,1.47
2019-04-27T18:20:52.639Z,1.47
2019-04-27T18:23:33.615Z,1.33
2019-04-27T18:26:19.271Z,1.10
2019-04-27T18:28:54.085Z,1.67
2019-04-27T18:31:28.950Z,1.30
2019-04-27T18:34:02.547Z,2.47
2019-04-27T18:36:37.857Z,3.20
2019-04-27T18:39:13.710Z,2.50
2019-04-27T18:41:52.510Z,2.27
2019-04-27T18:44:24.010Z,1.60
2019-04-27T18:46:58.858Z,1.47
2019-04-27T18:49:33.717Z,1.50
2019-04-27T18:52:09.009Z,1.70
2019-04-27T18:54:42.529Z,2.53
2019-04-27T18:57:16.449Z,2.40
2019-04-27T18:59:49.980Z,2.60
2019-04-27T19:02:23.505Z,1.50
2019-04-27T19:04:58.176Z,1.40
2019-04-27T19:07:31.742Z,1.90
2019-04-27T19:10:06.362Z,2.03
2019-04-27T19:12:39.924Z,1.50
2019-04-27T19:15:13.598Z,1.47
2019-04-27T19:17:48.997Z,1.83
2019-04-27T19:20:22.462Z,2.00
2019-04-27T19:22:56.060Z,2.50
2019-04-27T19:25:31.178Z,2.60
2019-04-27T19:28:08.957Z,2.17
2019-04-27T19:30:59.586Z,1.70
2019-04-27T19:33:33.063Z,2.33
2019-04-27T19:36:06.663Z,2.10
2019-04-27T19:38:49.786Z,2.07
2019-04-27T19:41:23.265Z,1.63
2019-04-27T19:43:56.845Z,1.60
2019-04-27T19:46:30.616Z,2.20
2019-04-27T19:49:04.577Z,1.60
2019-04-27T19:51:39.177Z,1.90
2019-04-27T19:54:12.806Z,1.77
2019-04-27T19:56:46.173Z,2.37
2019-04-27T19:59:21.441Z,1.70
2019-04-27T20:01:58.302Z,1.97
2019-04-27T20:04:36.177Z,1.67
2019-04-27T20:07:10.608Z,2.30
2019-04-27T20:09:45.818Z,2.17
2019-04-27T20:12:21.136Z,1.63
2019-04-27T20:14:57.691Z,1.70
2019-04-27T20:17:32.114Z,2.00
2019-04-27T20:20:05.854Z,1.50
2019-04-27T20:22:39.236Z,1.30
2019-04-27T20:25:12.662Z,1.67
2019-04-27T20:27:49.287Z,1.27
2019-04-27T20:30:21.199Z,1.50
2019-04-27T20:32:54.633Z,1.70
2019-04-27T20:35:28.134Z,1.80
2019-04-27T20:38:01.549Z,1.67
2019-04-27T20:40:34.911Z,2.20
2019-04-27T20:43:08.320Z,2.70
2019-04-27T20:45:41.760Z,2.10
2019-04-27T20:48:15.181Z,2.07
2019-04-27T20:50:48.588Z,2.13
2019-04-27T20:53:23.660Z,2.43
2019-04-27T20:55:57.122Z,2.20
2019-04-27T20:58:31.146Z,2.40
2019-04-27T21:01:04.733Z,2.50
2019-04-27T21:03:41.118Z,2.40
2019-04-27T21:06:21.179Z,2.67
2019-04-27T21:08:54.543Z,3.07
2019-04-27T21:11:30.865Z,3.20
2019-04-27T21:14:04.569Z,2.60
2019-04-27T21:16:38.255Z,2.60
2019-04-27T21:19:11.908Z,2.43
2019-04-27T21:21:45.579Z,2.77
2019-04-27T21:24:20.998Z,2.40
2019-04-27T21:26:54.592Z,2.40
2019-04-27T21:29:28.308Z,2.53
2019-04-27T21:32:01.957Z,2.37
2019-04-27T21:34:35.646Z,2.27
2019-04-27T21:37:10.948Z,2.27
2019-04-27T21:39:44.681Z,2.30
2019-04-27T21:42:18.303Z,2.17
2019-04-27T21:44:53.014Z,1.70
2019-04-27T21:47:26.823Z,2.17
2019-04-27T21:50:00.855Z,2.13
2019-04-27T21:52:36.337Z,2.37
2019-04-27T21:55:11.580Z,1.70
2019-04-27T21:57:45.284Z,1.80
2019-04-27T22:00:34.318Z,1.80
2019-04-27T22:03:11.422Z,2.10
2019-04-27T22:05:45.325Z,2.17
2019-04-27T22:08:18.947Z,1.73
2019-04-27T22:10:52.546Z,2.07
2019-04-27T22:13:26.313Z,2.00
2019-04-27T22:15:59.883Z,2.27
2019-04-27T22:18:33.596Z,2.00
2019-04-27T22:21:07.273Z,1.90
2019-04-27T22:23:48.310Z,2.17
2019-04-27T22:26:22.086Z,2.43
2019-04-27T22:28:55.888Z,2.17
2019-04-27T22:31:31.248Z,2.07
2019-04-27T22:34:05.100Z,2.20
2019-04-27T22:36:39.113Z,1.97
2019-04-27T22:39:20.885Z,2.10
2019-04-27T22:42:12.706Z,2.10
2019-04-27T22:44:48.059Z,2.43
2019-04-27T22:47:21.818Z,2.67
2019-04-27T22:49:55.506Z,2.67
2019-04-27T22:52:30.719Z,2.40
2019-04-27T22:55:06.052Z,2.57
2019-04-27T22:57:44.375Z,2.50
2019-04-27T23:00:25.584Z,3.13
2019-04-27T23:03:02.340Z,2.47
2019-04-27T23:05:36.327Z,2.47
2019-04-27T23:08:10.129Z,2.47
2019-04-27T23:10:43.859Z,2.53
2019-04-27T23:13:17.599Z,2.50
2019-04-27T23:15:52.850Z,2.47
2019-04-27T23:18:26.513Z,2.73
2019-04-27T23:21:01.531Z,3.17
2019-04-27T23:23:35.389Z,2.90
2019-04-27T23:26:09.650Z,3.50
2019-04-27T23:28:43.278Z,3.40
2019-04-27T23:31:18.613Z,3.50
2019-04-27T23:33:52.659Z,3.70
2019-04-27T23:36:26.329Z,3.40
2019-04-27T23:39:00.868Z,2.70
2019-04-27T23:41:34.745Z,2.73
2019-04-27T23:44:08.392Z,2.33
2019-04-27T23:46:42.112Z,2.93
2019-04-27T23:49:15.848Z,2.13
2019-04-27T23:51:51.203Z,2.10
2019-04-27T23:54:24.926Z,1.97
2019-04-27T23:56:58.636Z,2.00
2019-04-27T23:59:33.304Z,1.80
